Time;durP1;ratioP1;P1;durP2;ratioP2;P2;SDS_P1;SDS_P2;PMS_P1;PMS_P2;Temp;Humidity;BMP_temperature;BMP_pressure;BME280_temperature;BME280_humidity;BME280_pressure;Samples;Min_cycle;Max_cycle;Signal;HPM_P1;HPM_P2
2022/09/18 00:01:24;;;;;;;2.90;1.95;;;;;;;17.92;87.10;93776.16;5074299;28;20190;-66
2022/09/18 00:03:53;;;;;;;10.85;2.42;;;;;;;17.79;87.20;93790.94;5074425;28;20202;-69
2022/09/18 00:06:23;;;;;;;10.02;2.63;;;;;;;17.57;87.53;93795.22;5074559;28;20268;-68
2022/09/18 00:08:52;;;;;;;2.30;2.20;;;;;;;17.27;88.25;93795.94;5074725;28;20198;-66
2022/09/18 00:11:20;;;;;;;2.22;2.03;;;;;;;17.04;88.12;93820.03;5074317;28;20689;-67
2022/09/18 00:13:47;;;;;;;2.90;1.90;;;;;;;16.70;88.29;93842.34;5074525;28;20220;-68
2022/09/18 00:16:15;;;;;;;2.80;1.70;;;;;;;16.46;88.47;93841.63;5074639;28;20198;-67
2022/09/18 00:18:43;;;;;;;1.30;1.20;;;;;;;16.19;87.98;93847.91;5074837;28;20202;-68
2022/09/18 00:21:12;;;;;;;1.40;1.17;;;;;;;16.07;87.63;93861.66;5074675;28;20198;-68
2022/09/18 00:23:40;;;;;;;1.48;1.05;;;;;;;15.92;87.98;93873.00;5074694;28;20198;-68
2022/09/18 00:26:09;;;;;;;4.28;0.98;;;;;;;15.82;88.32;93879.75;5074381;28;20672;-68
2022/09/18 00:28:36;;;;;;;0.98;0.93;;;;;;;15.69;87.38;93881.53;5074333;28;20256;-68
2022/09/18 00:31:04;;;;;;;3.78;1.35;;;;;;;15.23;87.59;93882.22;5074205;28;20244;-67
2022/09/18 00:33:31;;;;;;;3.22;1.20;;;;;;;15.23;87.49;93897.56;5074118;28;20198;-66
2022/09/18 00:36:00;;;;;;;0.80;0.80;;;;;;;15.00;86.06;93880.47;5074061;28;20561;-67
2022/09/18 00:38:28;;;;;;;2.55;0.70;;;;;;;14.88;84.91;93897.44;5074165;28;20717;-70
2022/09/18 00:40:55;;;;;;;1.80;0.50;;;;;;;14.89;84.26;93909.31;5073940;28;20737;-68
2022/09/18 00:43:24;;;;;;;0.43;0.43;;;;;;;14.83;83.74;93915.69;5074246;28;20256;-69
2022/09/18 00:45:55;;;;;;;3.00;0.70;;;;;;;14.75;83.12;93930.72;5073595;28;20672;-67
2022/09/18 00:48:24;;;;;;;0.47;0.47;;;;;;;14.66;82.69;93931.34;5073593;28;20283;-67
2022/09/18 00:50:51;;;;;;;0.50;0.50;;;;;;;14.57;83.06;93935.34;5073689;28;20202;-68
2022/09/18 00:53:18;;;;;;;0.47;0.47;;;;;;;14.45;83.01;93958.34;5074083;28;20279;-67
2022/09/18 00:55:45;;;;;;;0.35;0.35;;;;;;;14.35;83.28;93955.56;5074134;28;20198;-68
2022/09/18 00:58:12;;;;;;;0.57;0.47;;;;;;;14.21;83.60;93961.56;5073778;28;20194;-68
2022/09/18 01:00:40;;;;;;;0.50;0.40;;;;;;;13.97;85.22;93981.03;5073876;28;20206;-69
2022/09/18 01:03:07;;;;;;;0.40;0.40;;;;;;;13.88;85.31;93992.63;5072694;28;20202;-68
2022/09/18 01:05:53;;;;;;;0.40;0.40;;;;;;;13.69;86.06;93987.03;5073155;28;20723;-68
2022/09/18 01:08:36;;;;;;;0.40;0.40;;;;;;;13.39;86.34;94066.31;5073599;28;20230;-68
2022/09/18 01:11:18;;;;;;;0.85;0.52;;;;;;;;;;5073812;28;20201;-67
2022/09/18 01:13:50;;;;;;;0.40;0.40;;;;;;;;;;5071091;28;20194;-67
2022/09/18 01:16:21;;;;;;;0.40;0.40;;;;;;;;;;5073750;28;20198;-68
2022/09/18 01:18:52;;;;;;;0.32;0.32;;;;;;;;;;5074261;28;20202;-70
2022/09/18 01:21:20;;;;;;;0.40;0.40;;;;;;;;;;5073748;28;20281;-68
2022/09/18 01:24:01;;;;;;;0.30;0.30;;;;;;;;;;5073787;28;20202;-69
2022/09/18 01:26:43;;;;;;;2.28;0.47;;;;;;;12.57;nan;94160.34;5071006;28;20259;-67
2022/09/18 01:29:16;;;;;;;0.30;0.30;;;;;;;;;;5073128;28;20634;-69
2022/09/18 01:31:45;;;;;;;4.03;0.30;;;;;;;;;;5073182;28;20202;-69
2022/09/18 01:34:13;;;;;;;0.20;0.20;;;;;;;;;;5073884;28;20255;-69
2022/09/18 01:36:41;;;;;;;0.20;0.20;;;;;;;;;;5073502;28;20195;-69
2022/09/18 01:39:11;;;;;;;0.30;0.30;;;;;;;;;;5073658;28;20203;-69
2022/09/18 01:41:40;;;;;;;0.60;0.60;;;;;;;;;;5073497;28;20209;-70
2022/09/18 01:44:09;;;;;;;0.20;0.20;;;;;;;;;;5073514;28;20199;-69
2022/09/18 01:46:39;;;;;;;0.30;0.30;;;;;;;;;;5073218;28;20203;-69
2022/09/18 01:49:08;;;;;;;3.75;0.28;;;;;;;;;;5073784;28;20198;-70
2022/09/18 01:51:36;;;;;;;0.20;0.20;;;;;;;;;;5073762;28;20198;-69
2022/09/18 01:54:05;;;;;;;3.60;0.75;;;;;;;;;;5073165;28;20198;-69
2022/09/18 01:56:33;;;;;;;1.20;0.20;;;;;;;;;;5073176;28;20280;-69
2022/09/18 01:59:03;;;;;;;0.20;0.20;;;;;;;;;;5073735;28;20233;-68
2022/09/18 02:01:33;;;;;;;0.30;0.30;;;;;;;12.08;nan;94266.63;5072637;28;20702;-70
2022/09/18 02:04:03;;;;;;;0.30;0.30;;;;;;;;;;5073556;28;20230;-68
2022/09/18 02:06:32;;;;;;;0.40;0.30;;;;;;;;;;5073160;28;20636;-69
2022/09/18 02:09:00;;;;;;;3.15;0.40;;;;;;;;;;5073172;28;20676;-68
2022/09/18 02:11:27;;;;;;;0.30;0.30;;;;;;;;;;5073127;28;20202;-69
2022/09/18 02:13:57;;;;;;;0.47;0.40;;;;;;;;;;5072764;28;20203;-69
2022/09/18 02:16:26;;;;;;;0.60;0.50;;;;;;;;;;5072849;28;20645;-68
2022/09/18 02:18:55;;;;;;;0.30;0.30;;;;;;;;;;5072741;28;20205;-69
2022/09/18 02:21:25;;;;;;;0.35;0.35;;;;;;;;;;5072506;28;20199;-68
2022/09/18 02:23:53;;;;;;;0.30;0.30;;;;;;;;;;5072468;28;20726;-69
2022/09/18 02:26:19;;;;;;;0.30;0.30;;;;;;;;;;5072817;28;20260;-70
2022/09/18 02:28:46;;;;;;;0.57;0.30;;;;;;;;;;5072694;28;20276;-69
2022/09/18 02:31:13;;;;;;;0.40;0.40;;;;;;;;;;5072481;28;20232;-69
2022/09/18 02:33:39;;;;;;;3.03;0.40;;;;;;;;;;5072308;28;20194;-70
2022/09/18 02:36:24;;;;;;;1.35;0.30;;;;;;;;;;5072329;28;20202;-68
2022/09/18 02:38:57;;;;;;;0.47;0.47;;;;;;;;;;5072701;28;20197;-69
2022/09/18 02:41:28;;;;;;;0.38;0.38;;;;;;;;;;5072727;28;20252;-68
2022/09/18 02:43:58;;;;;;;0.40;0.40;;;;;;;;;;5072387;28;20264;-68
2022/09/18 02:46:30;;;;;;;0.40;0.40;;;;;;;;;;5072214;28;20198;-69
2022/09/18 02:48:59;;;;;;;0.40;0.40;;;;;;;;;;5072236;28;20222;-70
2022/09/18 02:51:29;;;;;;;0.63;0.63;;;;;;;;;;5071702;28;20202;-68
2022/09/18 02:54:02;;;;;;;0.57;0.57;;;;;;;;;;5071551;28;20255;-70
2022/09/18 02:56:33;;;;;;;0.65;0.65;;;;;;;;;;5072241;28;20194;-69
2022/09/18 02:59:05;;;;;;;0.60;0.60;;;;;;;;;;5072019;28;20194;-67
2022/09/18 03:01:32;;;;;;;0.80;0.80;;;;;;;;;;5071469;28;20724;-67
2022/09/18 03:04:02;;;;;;;0.88;0.88;;;;;;;;;;5071967;28;20657;-67
2022/09/18 03:06:28;;;;;;;0.70;0.70;;;;;;;;;;5072281;28;20225;-67
2022/09/18 03:08:55;;;;;;;0.60;0.60;;;;;;;;;;5072041;28;20232;-70
2022/09/18 03:11:22;;;;;;;0.60;0.60;;;;;;;;;;5072328;28;20190;-69
2022/09/18 03:13:49;;;;;;;0.70;0.70;;;;;;;;;;5071793;28;20613;-69
2022/09/18 03:16:19;;;;;;;0.73;0.73;;;;;;;;;;5071700;28;20251;-70
2022/09/18 03:18:45;;;;;;;0.70;0.70;;;;;;;;;;5071660;28;20178;-69
2022/09/18 03:21:12;;;;;;;1.13;0.70;;;;;;;;;;5071766;28;20191;-68
2022/09/18 03:23:38;;;;;;;0.60;0.60;;;;;;;;;;5071462;28;20198;-67
2022/09/18 03:26:05;;;;;;;0.70;0.70;;;;;;;;;;5070938;28;20194;-69
2022/09/18 03:28:33;;;;;;;0.60;0.60;;;;;;;;;;5071452;28;20222;-68
2022/09/18 03:31:00;;;;;;;0.60;0.60;;;;;;;;;;5071993;28;20279;-70
2022/09/18 03:33:26;;;;;;;0.80;0.80;;;;;;;;;;5071726;28;20229;-69
2022/09/18 03:35:53;;;;;;;0.77;0.77;;;;;;;;;;5071374;28;20260;-68
2022/09/18 03:38:19;;;;;;;0.70;0.70;;;;;;;;;;5071427;28;20198;-67
2022/09/18 03:40:46;;;;;;;0.77;0.77;;;;;;;;;;5071408;28;20687;-70
2022/09/18 03:43:12;;;;;;;0.70;0.70;;;;;;;;;;5071718;28;20194;-71
2022/09/18 03:45:40;;;;;;;0.90;0.90;;;;;;;;;;5071742;28;20255;-69
2022/09/18 03:48:07;;;;;;;0.80;0.80;;;;;;;;;;5071633;28;20793;-71
2022/09/18 03:50:33;;;;;;;1.10;1.10;;;;;;;;;;5072297;28;20194;-70
2022/09/18 03:53:00;;;;;;;0.77;0.77;;;;;;;;;;5071134;28;20256;-65
2022/09/18 03:55:26;;;;;;;1.00;1.00;;;;;;;;;;5071364;28;20206;-70
2022/09/18 03:57:53;;;;;;;3.60;0.85;;;;;;;;;;5072002;28;20248;-69
2022/09/18 04:00:19;;;;;;;1.38;1.05;;;;;;;;;;5071392;28;20259;-70
2022/09/18 04:02:47;;;;;;;0.90;0.90;;;;;;;;;;5071127;28;20198;-69
2022/09/18 04:05:14;;;;;;;0.90;0.90;;;;;;;;;;5070697;28;20234;-69
2022/09/18 04:07:40;;;;;;;0.80;0.80;;;;;;;;;;5071060;28;20288;-65
2022/09/18 04:10:07;;;;;;;1.13;1.10;;;;;;;;;;5070890;28;20664;-69
2022/09/18 04:12:34;;;;;;;0.82;0.82;;;;;;;;;;5070875;28;20289;-69
2022/09/18 04:15:00;;;;;;;1.30;1.30;;;;;;;;;;5071258;28;20198;-68
2022/09/18 04:17:27;;;;;;;1.20;1.10;;;;;;;;;;5070944;28;20251;-68
2022/09/18 04:19:55;;;;;;;1.25;1.25;;;;;;;;;;5071059;28;20675;-69
2022/09/18 04:22:21;;;;;;;1.65;1.55;;;;;;;;;;5070904;28;20248;-68
2022/09/18 04:24:49;;;;;;;1.52;1.52;;;;;;;;;;5070469;28;20203;-69
2022/09/18 04:27:15;;;;;;;1.33;1.30;;;;;;;;;;5071314;28;20202;-69
2022/09/18 04:29:42;;;;;;;1.20;1.20;;;;;;;;;;5070745;28;20222;-69
2022/09/18 04:32:08;;;;;;;1.83;1.60;;;;;;;;;;5070725;28;20203;-69
2022/09/18 04:34:35;;;;;;;1.75;1.13;;;;;;;;;;5070824;28;20260;-69
2022/09/18 04:37:03;;;;;;;3.30;1.60;;;;;;;;;;5072266;28;20202;-67
2022/09/18 04:39:31;;;;;;;1.50;1.48;;;;;;;;;;5074589;28;20221;-69
2022/09/18 04:41:58;;;;;;;1.63;1.50;;;;;;;;;;5075005;28;20194;-70
2022/09/18 04:44:24;;;;;;;1.48;1.48;;;;;;;;;;5074651;28;20230;-69
2022/09/18 04:46:51;;;;;;;1.42;1.30;;;;;;;;;;5074581;28;20632;-70
2022/09/18 04:49:18;;;;;;;1.35;1.35;;;;;;;;;;5074529;28;20222;-69
2022/09/18 04:51:45;;;;;;;1.20;1.20;;;;;;;;;;5074656;28;20297;-69
2022/09/18 04:54:12;;;;;;;1.42;1.33;;;;;;;;;;5074177;28;20198;-69
2022/09/18 04:56:40;;;;;;;0.90;0.90;;;;;;;11.03;nan;94600.66;5075581;28;20206;-70
2022/09/18 04:59:07;;;;;;;1.52;1.42;;;;;;;;;;5074936;28;20194;-68
2022/09/18 05:01:34;;;;;;;2.75;1.48;;;;;;;;;;5074787;28;20198;-70
2022/09/18 05:04:01;;;;;;;1.23;1.23;;;;;;;;;;5074037;28;20320;-68
2022/09/18 05:06:27;;;;;;;1.25;1.25;;;;;;;;;;5073575;28;20276;-69
2022/09/18 05:08:54;;;;;;;1.08;1.08;;;;;;;;;;5073737;28;20349;-69
2022/09/18 05:11:21;;;;;;;1.20;1.20;;;;;;;;;;5073758;28;20672;-69
2022/09/18 05:13:48;;;;;;;1.40;1.40;;;;;;;;;;5073992;28;20318;-69
2022/09/18 05:16:15;;;;;;;2.22;2.13;;;;;;;;;;5073759;28;20248;-70
2022/09/18 05:18:41;;;;;;;1.15;1.15;;;;;;;;;;5074093;28;20214;-68
2022/09/18 05:21:08;;;;;;;2.17;1.98;;;;;;;;;;5073896;28;20226;-69
2022/09/18 05:23:34;;;;;;;1.42;1.35;;;;;;;;;;5073286;28;20251;-67
2022/09/18 05:26:01;;;;;;;9.63;2.22;;;;;;;;;;5073793;28;20198;-70
2022/09/18 05:28:29;;;;;;;3.50;1.92;;;;;;;;;;5073699;28;20288;-69
2022/09/18 05:30:58;;;;;;;2.13;1.75;;;;;;;;;;5073736;28;20637;-69
2022/09/18 05:33:25;;;;;;;2.35;2.15;;;;;;;;;;5073467;28;20206;-70
2022/09/18 05:35:53;;;;;;;1.90;1.80;;;;;;;;;;5073765;28;20202;-69
2022/09/18 05:38:20;;;;;;;1.70;1.60;;;;;;;11.31;nan;94691.88;5073053;28;20617;-70
2022/09/18 05:40:47;;;;;;;1.80;1.70;;;;;;;;;;5073328;28;20199;-70
2022/09/18 05:43:14;;;;;;;1.90;1.80;;;;;;;;;;5073448;28;20282;-71
2022/09/18 05:45:42;;;;;;;2.17;2.08;;;;;;;;;;5073567;28;20195;-71
2022/09/18 05:48:11;;;;;;;1.50;1.50;;;;;;;;;;5072613;28;20210;-68
2022/09/18 05:50:37;;;;;;;2.17;1.70;;;;;;;;;;5073863;28;20202;-69
2022/09/18 05:53:06;;;;;;;1.80;1.70;;;;;;;11.53;nan;94712.16;5073221;28;20275;-70
2022/09/18 05:55:32;;;;;;;1.90;1.80;;;;;;;;;;5073330;28;20194;-70
2022/09/18 05:58:00;;;;;;;2.08;1.83;;;;;;;;;;5073024;28;20205;-68
2022/09/18 06:00:27;;;;;;;1.90;1.80;;;;;;;;;;5073297;28;20199;-69
2022/09/18 06:02:56;;;;;;;1.17;1.17;;;;;;;;;;5073173;28;20205;-70
2022/09/18 06:05:22;;;;;;;1.98;1.75;;;;;;;;;;5072446;28;20238;-70
2022/09/18 06:07:49;;;;;;;2.10;2.00;;;;;;;;;;5072602;28;20198;-69
2022/09/18 06:10:16;;;;;;;1.80;1.70;;;;;;;;;;5072449;28;20222;-68
2022/09/18 06:12:42;;;;;;;2.40;1.00;;;;;;;;;;5073159;28;20233;-69
2022/09/18 06:15:09;;;;;;;1.52;1.30;;;;;;;;;;5072976;28;20284;-69
2022/09/18 06:17:35;;;;;;;1.50;1.40;;;;;;;;;;5072790;28;20272;-69
2022/09/18 06:20:04;;;;;;;1.15;1.15;;;;;;;;;;5072900;28;20202;-69
2022/09/18 06:22:31;;;;;;;2.03;1.38;;;;;;;;;;5072304;28;20202;-68
2022/09/18 06:24:58;;;;;;;1.17;1.17;;;;;;;;;;5073150;28;20195;-67
2022/09/18 06:27:24;;;;;;;0.60;0.60;;;;;;;;;;5072957;28;20255;-69
2022/09/18 06:29:51;;;;;;;1.45;1.02;;;;;;;;;;5072923;28;20232;-69
2022/09/18 06:32:19;;;;;;;0.77;0.77;;;;;;;;;;5072175;28;20566;-69
2022/09/18 06:34:45;;;;;;;1.35;0.90;;;;;;;;;;5072648;28;20202;-68
2022/09/18 06:37:13;;;;;;;0.90;0.90;;;;;;;;;;5072170;28;20202;-69
2022/09/18 06:39:40;;;;;;;0.60;0.60;;;;;;;;;;5072653;28;20194;-69
2022/09/18 06:42:07;;;;;;;0.80;0.80;;;;;;;;;;5072249;28;20252;-70
2022/09/18 06:44:33;;;;;;;4.03;2.00;;;;;;;;;;5072311;28;20275;-70
2022/09/18 06:47:00;;;;;;;7.13;5.03;;;;;;;;;;5072077;28;20202;-69
2022/09/18 06:49:26;;;;;;;1.02;0.95;;;;;;;;;;5072025;28;20292;-70
2022/09/18 06:51:53;;;;;;;2.20;2.10;;;;;;;;;;5071959;28;20198;-68
2022/09/18 06:54:21;;;;;;;2.58;2.38;;;;;;;;;;5071507;28;20694;-70
2022/09/18 06:56:48;;;;;;;5.13;2.50;;;;;;;;;;5072273;28;20228;-69
2022/09/18 06:59:14;;;;;;;2.25;1.42;;;;;;;;;;5072313;28;20224;-69
2022/09/18 07:01:41;;;;;;;0.70;0.70;;;;;;;;;;5071113;28;20194;-68
2022/09/18 07:04:07;;;;;;;1.30;1.20;;;;;;;;;;5071734;28;20295;-70
2022/09/18 07:06:34;;;;;;;2.25;1.08;;;;;;;;;;5071781;28;20771;-69
2022/09/18 07:09:00;;;;;;;0.73;0.73;;;;;;;;;;5071849;28;20606;-70
2022/09/18 07:11:28;;;;;;;1.38;0.90;;;;;;;;;;5071454;28;20195;-70
2022/09/18 07:13:54;;;;;;;2.00;0.80;;;;;;;;;;5071531;28;20203;-70
2022/09/18 07:16:21;;;;;;;1.15;0.93;;;;;;;;;;5071411;28;20199;-69
2022/09/18 07:18:48;;;;;;;2.85;1.17;;;;;;;;;;5071243;28;20660;-69
2022/09/18 07:21:14;;;;;;;0.98;0.85;;;;;;;;;;5071530;28;20631;-65
2022/09/18 07:23:40;;;;;;;1.75;0.70;;;;;;;;;;5071246;28;20264;-69
2022/09/18 07:26:07;;;;;;;1.20;1.10;;;;;;;;;;5071466;28;20198;-69
2022/09/18 07:28:35;;;;;;;1.10;1.10;;;;;;;;;;5071674;28;20206;-68
2022/09/18 07:31:03;;;;;;;3.45;3.15;;;;;;;;;;5071526;28;20252;-70
2022/09/18 07:33:29;;;;;;;2.40;2.20;;;;;;;;;;5071656;28;20198;-68
2022/09/18 07:35:59;;;;;;;2.95;0.95;;;;;;;;;;5071933;28;20272;-68
2022/09/18 07:38:25;;;;;;;3.38;0.77;;;;;;;;;;5072117;28;20281;-68
2022/09/18 07:40:52;;;;;;;0.63;0.63;;;;;;;;;;5071018;28;20206;-69
2022/09/18 07:43:18;;;;;;;0.63;0.63;;;;;;;;;;5071533;28;20629;-70
2022/09/18 07:45:46;;;;;;;0.60;0.60;;;;;;;;;;5071393;28;20205;-70
2022/09/18 07:48:13;;;;;;;0.70;0.70;;;;;;;;;;5071677;28;20359;-68
2022/09/18 07:50:40;;;;;;;0.90;0.90;;;;;;;;;;5071479;28;20221;-70
2022/09/18 07:53:07;;;;;;;1.10;1.10;;;;;;;;;;5071008;28;20275;-71
2022/09/18 07:55:35;;;;;;;2.70;1.98;;;;;;;;;;5071638;28;20198;-68
2022/09/18 07:58:03;;;;;;;2.22;2.00;;;;;;;;;;5071348;28;20202;-68
2022/09/18 08:00:32;;;;;;;1.00;0.95;;;;;;;;;;5071270;28;20194;-69
2022/09/18 08:03:03;;;;;;;3.30;3.00;;;;;;;;;;5071455;28;20202;-69
2022/09/18 08:05:30;;;;;;;5.95;4.43;;;;;;;;;;5071180;28;20272;-68
2022/09/18 08:08:03;;;;;;;1.52;1.42;;;;;;;12.95;nan;94824.66;5070919;28;20199;-69
2022/09/18 08:10:29;;;;;;;11.77;7.22;;;;;;;;;;5071135;28;20222;-69
2022/09/18 08:12:56;;;;;;;8.88;6.65;;;;;;;;;;5074012;28;20202;-69
2022/09/18 08:15:22;;;;;;;3.25;3.05;;;;;;;;;;5075209;28;20198;-68
2022/09/18 08:17:48;;;;;;;3.20;2.97;;;;;;;;;;5074949;28;20198;-69
2022/09/18 08:20:16;;;;;;;2.08;1.98;;;;;;;;;;5074781;28;20749;-68
2022/09/18 08:22:43;;;;;;;1.50;1.38;;;;;;;;;;5074183;28;20194;-68
2022/09/18 08:25:10;;;;;;;4.10;3.60;;;;;;;;;;5074658;28;20194;-69
2022/09/18 08:27:37;;;;;;;3.83;3.17;;;;;;;;;;5074835;28;20576;-68
2022/09/18 08:30:04;;;;;;;1.58;0.95;;;;;;;;;;5074667;28;20279;-67
2022/09/18 08:32:31;;;;;;;1.38;0.73;;;;;;;;;;5074575;28;20255;-68
2022/09/18 08:34:58;;;;;;;4.00;0.90;;;;;;;;;;5074596;28;20198;-69
2022/09/18 08:37:27;;;;;;;2.30;1.08;;;;;;;;;;5074306;28;20574;-66
2022/09/18 08:39:53;;;;;;;0.90;0.88;;;;;;;;;;5074200;28;20255;-68
2022/09/18 08:42:24;;;;;;;1.60;1.00;;;;;;;;;;5074963;28;21230;-70
2022/09/18 08:44:53;;;;;;;0.85;0.85;;;;;;;;;;5074610;28;20198;-69
2022/09/18 08:47:22;;;;;;;2.08;0.95;;;;;;;;;;5074754;28;20206;-70
2022/09/18 08:49:51;;;;;;;1.15;1.05;;;;;;;;;;5075169;28;20230;-69
2022/09/18 08:52:18;;;;;;;1.17;1.08;;;;;;;;;;5074421;28;20203;-70
2022/09/18 08:54:49;;;;;;;0.88;0.88;;;;;;;;;;5074115;28;20684;-69
2022/09/18 08:57:20;;;;;;;0.80;0.80;;;;;;;;;;5073776;28;20199;-69
2022/09/18 08:59:48;;;;;;;0.93;0.93;;;;;;;;;;5074516;28;20252;-70
2022/09/18 09:02:36;;;;;;;0.90;0.90;;;;;;;;;;5073594;28;20209;-69
2022/09/18 09:05:05;;;;;;;0.90;0.90;;;;;;;;;;5073224;28;20230;-65
2022/09/18 09:07:36;;;;;;;2.17;0.80;;;;;;;;;;5073858;28;20222;-69
2022/09/18 09:10:11;;;;;;;1.02;1.02;;;;;;;;;;5073713;28;20245;-68
2022/09/18 09:12:41;;;;;;;1.10;1.10;;;;;;;;;;5073895;28;20627;-67
2022/09/18 09:15:18;;;;;;;1.05;1.05;;;;;;;;;;5074246;28;20199;-69
2022/09/18 09:17:48;;;;;;;0.90;0.90;;;;;;;;;;5073916;28;20202;-72
2022/09/18 09:20:19;;;;;;;0.75;0.70;;;;;;;;;;5073894;28;20194;-70
2022/09/18 09:22:49;;;;;;;3.30;2.90;;;;;;;;;;5073233;28;20225;-70
2022/09/18 09:25:19;;;;;;;1.90;1.80;;;;;;;;;;5072886;28;20252;-69
2022/09/18 09:27:48;;;;;;;1.90;1.80;;;;;;;;;;5074917;28;20204;-69
2022/09/18 09:30:16;;;;;;;1.70;0.98;;;;;;;;;;5074133;28;20305;-69
2022/09/18 09:32:44;;;;;;;1.38;1.10;;;;;;;;;;5073807;28;20646;-69
2022/09/18 09:35:20;;;;;;;1.05;1.05;;;;;;;;;;5074255;28;20664;-68
2022/09/18 09:37:47;;;;;;;1.30;1.20;;;;;;;;;;5073787;28;20252;-69
2022/09/18 09:40:16;;;;;;;1.75;1.65;;;;;;;;;;5073353;28;20198;-68
2022/09/18 09:42:46;;;;;;;1.88;1.77;;;;;;;;;;5073469;28;20203;-70
2022/09/18 09:45:16;;;;;;;2.25;2.15;;;;;;;;;;5072969;28;20221;-70
2022/09/18 09:47:45;;;;;;;2.20;2.10;;;;;;;;;;5073041;28;20267;-70
2022/09/18 09:50:18;;;;;;;2.20;2.10;;;;;;;;;;5073081;28;20245;-69
2022/09/18 09:52:46;;;;;;;6.93;2.47;;;;;;;;;;5073391;28;20198;-69
2022/09/18 09:55:24;;;;;;;2.13;2.03;;;;;;;;;;5072659;28;20286;-70
2022/09/18 09:57:58;;;;;;;2.10;2.00;;;;;;;;;;5073085;28;20202;-68
2022/09/18 10:00:25;;;;;;;2.30;2.20;;;;;;;;;;5072844;28;20247;-68
2022/09/18 10:03:13;;;;;;;2.47;2.28;;;;;;;;;;5073332;28;20194;-71
2022/09/18 10:05:42;;;;;;;2.50;2.30;;;;;;;;;;5067603;28;20252;-71
2022/09/18 10:08:11;;;;;;;2.33;2.22;;;;;;;;;;5072532;28;20194;-69
2022/09/18 10:10:40;;;;;;;2.00;1.90;;;;;;;;;;5073123;28;20275;-69
2022/09/18 10:13:10;;;;;;;3.83;3.53;;;;;;;;;;5072893;28;20206;-70
2022/09/18 10:15:39;;;;;;;8.63;6.85;;;;;;;;;;5072388;28;20202;-70
2022/09/18 10:18:06;;;;;;;3.00;2.80;;;;;;;;;;5072823;28;20210;-70
2022/09/18 10:20:35;;;;;;;5.28;2.75;;;;;;;;;;5072547;28;20190;-70
2022/09/18 10:23:03;;;;;;;2.78;2.67;;;;;;;;;;5072426;28;20252;-70
2022/09/18 10:25:33;;;;;;;3.45;3.25;;;;;;;;;;5072372;28;20194;-70
2022/09/18 10:28:00;;;;;;;2.38;2.28;;;;;;;;;;5072550;28;20752;-70
2022/09/18 10:30:28;;;;;;;2.10;2.00;;;;;;;;;;5072191;28;20230;-70
2022/09/18 10:32:54;;;;;;;2.53;2.40;;;;;;;;;;5072089;28;20680;-68
2022/09/18 10:35:41;;;;;;;4.25;2.90;;;;;;;;;;5071931;28;20276;-70
2022/09/18 10:38:23;;;;;;;2.80;2.60;;;;;;;;;;5066882;28;20248;-69
2022/09/18 10:40:49;;;;;;;3.05;2.63;;;;;;;;;;5072522;28;20195;-67
2022/09/18 10:43:17;;;;;;;3.30;2.97;;;;;;;;;;5071582;28;20577;-69
2022/09/18 10:45:50;;;;;;;2.90;2.70;;;;;;;;;;5072046;28;20676;-70
2022/09/18 10:48:18;;;;;;;2.60;2.50;;;;;;;;;;5072241;28;20555;-70
2022/09/18 10:50:51;;;;;;;3.35;3.15;;;;;;;;;;5072113;28;20273;-70
2022/09/18 10:53:23;;;;;;;2.90;2.70;;;;;;;;;;5072016;28;20614;-70
2022/09/18 10:55:50;;;;;;;3.83;3.55;;;;;;;;;;5071883;28;20202;-68
2022/09/18 10:58:17;;;;;;;13.20;9.85;;;;;;;;;;5072002;28;20263;-68
2022/09/18 11:00:49;;;;;;;3.72;3.53;;;;;;;;;;5071555;28;20191;-69
2022/09/18 11:03:20;;;;;;;3.17;2.97;;;;;;;;;;5071628;28;20209;-70
2022/09/18 11:05:49;;;;;;;3.83;3.10;;;;;;;;;;5071474;28;20716;-69
2022/09/18 11:08:16;;;;;;;3.25;2.95;;;;;;;;;;5071643;28;20252;-70
2022/09/18 11:10:47;;;;;;;5.13;4.43;;;;;;;;;;5071882;28;20222;-69
2022/09/18 11:13:16;;;;;;;7.57;6.30;;;;;;;;;;5071837;28;20203;-69
2022/09/18 11:15:51;;;;;;;4.70;3.45;;;;;;;;;;5071505;28;20742;-67
2022/09/18 11:18:19;;;;;;;2.65;2.50;;;;;;;;;;5071678;28;20194;-69
2022/09/18 11:20:47;;;;;;;2.67;2.42;;;;;;;;;;5071196;28;20199;-70
2022/09/18 11:23:14;;;;;;;1.85;1.75;;;;;;;;;;5072280;28;20194;-70
2022/09/18 11:25:41;;;;;;;3.95;1.85;;;;;;;;;;5071595;28;20285;-68
2022/09/18 11:28:21;;;;;;;2.35;2.00;;;;;;;;;;5071566;28;20194;-70
2022/09/18 11:30:54;;;;;;;2.20;2.05;;;;;;;;;;5071208;28;20676;-69
2022/09/18 11:33:24;;;;;;;2.38;1.92;;;;;;;;;;5071479;28;20206;-68
2022/09/18 11:35:54;;;;;;;2.85;1.80;;;;;;;;;;5071226;28;20263;-70
2022/09/18 11:38:21;;;;;;;1.75;1.65;;;;;;;;;;5072055;28;20194;-69
2022/09/18 11:40:50;;;;;;;1.70;1.60;;;;;;;;;;5071541;28;20226;-70
2022/09/18 11:43:21;;;;;;;1.60;1.50;;;;;;;;;;5071333;28;20201;-69
2022/09/18 11:45:51;;;;;;;1.85;1.73;;;;;;;;;;5071704;28;20256;-70
2022/09/18 11:48:25;;;;;;;2.60;1.67;;;;;;;;;;5075101;28;20221;-70
2022/09/18 11:50:54;;;;;;;4.47;4.15;;;;;;;;;;5075321;28;20286;-69
2022/09/18 11:53:23;;;;;;;2.80;2.60;;;;;;;;;;5075077;28;20197;-69
2022/09/18 11:55:53;;;;;;;1.92;1.83;;;;;;;;;;5074866;28;20204;-69
2022/09/18 11:58:22;;;;;;;1.83;1.73;;;;;;;;;;5075211;28;20277;-69
2022/09/18 12:00:51;;;;;;;2.05;1.83;;;;;;;;;;5074854;28;20664;-69
2022/09/18 12:03:21;;;;;;;1.90;1.80;;;;;;;;;;5075201;28;20607;-69
2022/09/18 12:05:55;;;;;;;4.95;2.00;;;;;;;14.02;nan;94990.66;5074982;28;20238;-69
2022/09/18 12:08:39;;;;;;;1.83;1.73;;;;;;;;;;5074927;28;20602;-69
2022/09/18 12:11:09;;;;;;;1.40;1.30;;;;;;;;;;5074314;28;20283;-68
2022/09/18 12:13:45;;;;;;;1.42;1.40;;;;;;;;;;5075152;28;20202;-68
2022/09/18 12:16:13;;;;;;;1.95;1.30;;;;;;;;;;5075204;28;20281;-68
2022/09/18 12:18:46;;;;;;;1.40;1.40;;;;;;;;;;5074977;28;20741;-69
2022/09/18 12:21:16;;;;;;;1.23;1.20;;;;;;;;;;5075055;28;20202;-68
2022/09/18 12:23:42;;;;;;;1.08;1.00;;;;;;;;;;5074657;28;20224;-69
2022/09/18 12:26:12;;;;;;;3.83;1.35;;;;;;;;;;5074488;28;20252;-70
2022/09/18 12:28:42;;;;;;;1.65;1.55;;;;;;;;;;5074568;28;20202;-70
2022/09/18 12:31:12;;;;;;;1.52;1.42;;;;;;;;;;5074554;28;20222;-69
2022/09/18 12:33:41;;;;;;;5.53;1.60;;;;;;;;;;5074627;28;20584;-69
2022/09/18 12:36:18;;;;;;;3.33;2.80;;;;;;;;;;5074306;28;20200;-70
2022/09/18 12:38:56;;;;;;;7.63;4.25;;;;;;;;;;5074827;28;20275;-70
2022/09/18 12:41:29;;;;;;;3.05;2.58;;;;;;;;;;5074603;28;20240;-69
2022/09/18 12:44:20;;;;;;;10.15;6.22;;;;;;;;;;5074060;28;20194;-69
2022/09/18 12:46:55;;;;;;;4.30;3.90;;;;;;;;;;5058926;28;20202;-70
2022/09/18 12:49:39;;;;;;;2.10;2.00;;;;;;;;;;5073944;28;20676;-68
2022/09/18 12:52:12;;;;;;;3.10;1.60;;;;;;;;;;5074478;28;20222;-68
2022/09/18 12:54:55;;;;;;;3.20;1.85;;;;;;;;;;5074172;28;20202;-68
2022/09/18 12:57:29;;;;;;;5.03;1.58;;;;;;;;;;5074557;28;20256;-70
2022/09/18 12:59:58;;;;;;;1.58;1.40;;;;;;;;;;5074525;28;20339;-69
2022/09/18 13:02:35;;;;;;;1.20;1.20;;;;;;;;;;5073653;28;20202;-69
2022/09/18 13:05:02;;;;;;;2.45;1.30;;;;;;;;;;5073877;28;20293;-67
2022/09/18 13:07:32;;;;;;;1.73;1.50;;;;;;;;;;5073582;28;20744;-69
2022/09/18 13:10:07;;;;;;;1.40;1.38;;;;;;;16.13;nan;94994.13;5073779;28;20194;-67
2022/09/18 13:12:35;;;;;;;1.30;1.00;;;;;;;;;;5073801;28;20290;-69
2022/09/18 13:15:10;;;;;;;1.55;1.13;;;;;;;16.34;nan;94992.91;5073539;28;20672;-69
2022/09/18 13:17:38;;;;;;;1.13;1.05;;;;;;;;;;5074109;28;20658;-70
2022/09/18 13:20:11;;;;;;;1.52;1.10;;;;;;;;;;5073717;28;20202;-70
2022/09/18 13:22:40;;;;;;;1.05;1.00;;;;;;;;;;5073982;28;20203;-72
2022/09/18 13:25:19;;;;;;;9.38;5.97;;;;;;;;;;5073282;28;20293;-69
2022/09/18 13:27:46;;;;;;;1.92;1.50;;;;;;;;;;5073380;28;20259;-69
2022/09/18 13:30:16;;;;;;;1.10;1.10;;;;;;;15.71;nan;94988.84;5073378;28;20202;-71
2022/09/18 13:32:43;;;;;;;1.65;1.10;;;;;;;;;;5073364;28;20198;-70
2022/09/18 13:35:19;;;;;;;1.30;1.20;;;;;;;;;;5073470;28;20256;-68
2022/09/18 13:37:47;;;;;;;1.35;1.25;;;;;;;;;;5073657;28;20209;-70
2022/09/18 13:40:30;;;;;;;1.02;1.02;;;;;;;;;;5073591;28;20198;-70
2022/09/18 13:42:56;;;;;;;2.50;1.35;;;;;;;;;;5073599;28;20198;-69
2022/09/18 13:45:25;;;;;;;1.40;1.30;;;;;;;;;;5072967;28;20259;-67
2022/09/18 13:48:04;;;;;;;2.03;1.20;;;;;;;14.45;nan;95001.38;5073000;28;20806;-70
2022/09/18 13:50:31;;;;;;;1.50;1.40;;;;;;;;;;5073074;28;20205;-71
2022/09/18 13:52:59;;;;;;;1.52;1.25;;;;;;;;;;5072885;28;20328;-70
2022/09/18 13:55:47;;;;;;;1.33;1.20;;;;;;;15.14;nan;95014.03;5072260;28;20202;-67
2022/09/18 13:58:31;;;;;;;75.95;41.40;;;;;;;;;;5072952;28;20198;-68
2022/09/18 14:00:58;;;;;;;13.23;8.07;;;;;;;;;;5062006;28;20202;-66
2022/09/18 14:03:38;;;;;;;10.45;6.03;;;;;;;;;;5071977;28;20202;-62
2022/09/18 14:06:22;;;;;;;12.43;7.22;;;;;;;;;;5051938;28;20716;-62
2022/09/18 14:08:50;;;;;;;5.45;4.38;;;;;;;;;;5051754;28;20706;-62
2022/09/18 14:11:23;;;;;;;5.50;4.00;;;;;;;;;;5051428;28;20276;-63
2022/09/18 14:13:53;;;;;;;5.80;3.90;;;;;;;17.58;nan;95000.97;5051535;28;20206;-62
2022/09/18 14:16:30;;;;;;;4.95;2.95;;;;;;;;;;5052336;28;20203;-62
2022/09/18 14:18:58;;;;;;;89.70;51.28;;;;;;;;;;5052386;28;20265;-62
2022/09/18 14:21:27;;;;;;;12.80;6.35;;;;;;;;;;5052137;28;20226;-63
2022/09/18 14:24:06;;;;;;;6.22;2.60;;;;;;;;;;5051964;28;20269;-62
2022/09/18 14:27:18;;;;;;;19.30;8.65;;;;;;;18.19;nan;95000.53;5051864;28;20203;-62
2022/09/18 14:29:45;;;;;;;1.98;1.88;;;;;;;;;;4982496;28;20197;-67